createdAt,value
2019-05-26T00:00:11.651Z,8.00
2019-05-26T00:02:57.671Z,10.00
2019-05-26T00:05:43.607Z,8.73
2019-05-26T00:08:29.892Z,9.00
2019-05-26T00:11:16.170Z,9.90
2019-05-26T00:14:02.448Z,10.17
2019-05-26T00:16:48.523Z,9.07
2019-05-26T00:19:34.522Z,8.70
2019-05-26T00:22:20.434Z,8.67
2019-05-26T00:25:06.439Z,11.13
2019-05-26T00:27:52.881Z,11.17
2019-05-26T00:30:39.770Z,10.53
2019-05-26T00:33:26.070Z,9.10
2019-05-26T00:36:12.634Z,10.90
2019-05-26T00:38:58.950Z,11.87
2019-05-26T00:41:44.865Z,12.33
2019-05-26T00:44:32.401Z,9.17
2019-05-26T00:47:18.462Z,10.37
2019-05-26T00:50:06.622Z,9.70
2019-05-26T00:52:56.356Z,10.60
2019-05-26T00:55:41.179Z,11.00
2019-05-26T00:58:27.299Z,12.53
2019-05-26T01:01:13.342Z,12.57
2019-05-26T01:03:59.631Z,14.83
2019-05-26T01:06:49.958Z,11.17
2019-05-26T01:09:42.329Z,12.97
2019-05-26T01:12:28.323Z,16.80
2019-05-26T01:15:14.212Z,12.80
2019-05-26T01:18:00.623Z,13.87
2019-05-26T01:20:46.905Z,13.33
2019-05-26T01:23:32.986Z,13.10
2019-05-26T01:26:19.008Z,12.97
2019-05-26T01:29:04.991Z,13.70
2019-05-26T01:31:51.054Z,13.70
2019-05-26T01:34:37.075Z,16.53
2019-05-26T01:37:25.369Z,14.37
2019-05-26T01:40:11.462Z,13.13
2019-05-26T01:42:57.780Z,13.63
2019-05-26T01:45:43.921Z,12.90
2019-05-26T01:48:30.220Z,13.87
2019-05-26T01:51:16.416Z,16.60
2019-05-26T01:54:10.971Z,14.10
2019-05-26T01:56:57.185Z,15.93
2019-05-26T01:59:43.504Z,19.17
2019-05-26T02:02:29.809Z,17.10
2019-05-26T02:05:16.104Z,14.90
2019-05-26T02:08:02.441Z,20.20
2019-05-26T02:10:48.634Z,16.47
2019-05-26T02:13:37.559Z,15.77
2019-05-26T02:16:23.622Z,16.83
2019-05-26T02:19:09.608Z,16.30
2019-05-26T02:21:55.868Z,21.27
2019-05-26T02:24:41.863Z,18.70
2019-05-26T02:27:28.218Z,19.63
2019-05-26T02:30:14.223Z,19.47
2019-05-26T02:33:00.613Z,21.53
2019-05-26T02:35:46.703Z,24.27
2019-05-26T02:38:33.043Z,21.97
2019-05-26T02:41:19.275Z,22.43
2019-05-26T02:44:06.172Z,25.00
2019-05-26T02:46:52.190Z,22.50
2019-05-26T02:49:38.669Z,24.23
2019-05-26T02:52:24.795Z,22.77
2019-05-26T02:55:11.052Z,25.23
2019-05-26T02:57:57.288Z,24.87
2019-05-26T03:00:46.141Z,24.33
2019-05-26T03:03:32.655Z,25.43
2019-05-26T03:06:19.784Z,27.50
2019-05-26T03:09:21.730Z,27.07
2019-05-26T03:11:53.770Z,28.33
2019-05-26T03:14:42.978Z,29.43
2019-05-26T03:17:28.875Z,29.77
2019-05-26T03:20:14.722Z,29.50
2019-05-26T03:23:00.982Z,27.67
2019-05-26T03:25:46.844Z,28.70
2019-05-26T03:28:35.739Z,30.43
2019-05-26T03:31:21.688Z,30.67
2019-05-26T03:34:07.923Z,29.13
2019-05-26T03:36:55.987Z,29.93
2019-05-26T03:39:46.371Z,33.50
2019-05-26T03:42:33.062Z,30.07
2019-05-26T03:45:19.494Z,30.60
2019-05-26T03:48:06.584Z,28.63
2019-05-26T03:50:53.016Z,27.40
2019-05-26T03:53:39.250Z,27.70
2019-05-26T03:56:25.506Z,30.40
2019-05-26T03:59:11.883Z,27.20
2019-05-26T04:01:58.110Z,30.47
2019-05-26T04:04:45.606Z,29.47
2019-05-26T04:07:31.518Z,28.27
2019-05-26T04:10:18.211Z,28.47
2019-05-26T04:13:04.434Z,28.67
2019-05-26T04:15:50.744Z,29.00
2019-05-26T04:18:36.815Z,29.33
2019-05-26T04:21:22.979Z,28.97
2019-05-26T04:24:09.201Z,35.00
2019-05-26T04:26:55.344Z,31.40
2019-05-26T04:29:41.436Z,32.03
2019-05-26T04:32:27.694Z,31.50
2019-05-26T04:35:16.957Z,33.67
2019-05-26T04:38:03.064Z,33.77
2019-05-26T04:40:49.073Z,33.93
2019-05-26T04:43:41.161Z,31.63
2019-05-26T04:46:27.174Z,32.43
2019-05-26T04:49:13.169Z,32.07
2019-05-26T04:52:00.183Z,33.53
2019-05-26T04:54:49.256Z,31.63
2019-05-26T04:57:38.611Z,30.90
2019-05-26T05:00:24.662Z,31.60
2019-05-26T05:03:12.800Z,33.57
2019-05-26T05:05:58.995Z,32.90
2019-05-26T05:08:45.152Z,35.27
2019-05-26T05:11:31.232Z,35.73
2019-05-26T05:14:17.284Z,36.23
2019-05-26T05:17:03.684Z,43.23
2019-05-26T05:19:49.621Z,36.87
2019-05-26T05:22:35.684Z,36.40
2019-05-26T05:25:24.680Z,36.47
2019-05-26T05:28:14.133Z,38.23
2019-05-26T05:31:00.664Z,36.87
2019-05-26T05:33:49.665Z,38.77
2019-05-26T05:36:35.846Z,41.43
2019-05-26T05:39:25.033Z,38.87
2019-05-26T05:42:10.984Z,38.50
2019-05-26T05:44:57.420Z,39.23
2019-05-26T05:47:43.874Z,37.73
2019-05-26T05:50:30.059Z,40.77
2019-05-26T05:53:19.652Z,39.80
2019-05-26T05:56:05.796Z,37.97
2019-05-26T05:58:53.797Z,40.27
2019-05-26T06:01:39.715Z,38.77
2019-05-26T06:04:25.792Z,44.80
2019-05-26T06:07:13.406Z,37.67
2019-05-26T06:10:00.927Z,38.00
2019-05-26T06:12:49.281Z,36.50
2019-05-26T06:15:36.028Z,36.27
2019-05-26T06:18:22.212Z,34.70
2019-05-26T06:21:08.558Z,35.40
2019-05-26T06:23:55.242Z,34.17
2019-05-26T06:26:41.434Z,32.43
2019-05-26T06:29:27.697Z,33.07
2019-05-26T06:32:14.937Z,34.03
2019-05-26T06:35:01.869Z,31.37
2019-05-26T06:37:51.083Z,32.30
2019-05-26T06:40:36.942Z,30.70
2019-05-26T06:43:22.903Z,34.37
2019-05-26T06:46:08.952Z,30.23
2019-05-26T06:48:54.896Z,32.00
2019-05-26T06:51:41.139Z,29.73
2019-05-26T06:54:27.263Z,30.00
2019-05-26T06:57:13.192Z,29.33
2019-05-26T06:59:59.489Z,29.20
2019-05-26T07:02:45.811Z,28.73
2019-05-26T07:05:31.661Z,27.37
2019-05-26T07:08:17.831Z,27.00
2019-05-26T07:11:03.827Z,27.87
2019-05-26T07:13:50.077Z,26.00
2019-05-26T07:16:38.380Z,24.63
2019-05-26T07:19:23.992Z,24.90
2019-05-26T07:22:09.950Z,24.43
2019-05-26T07:24:56.816Z,25.43
2019-05-26T07:27:42.945Z,24.50
2019-05-26T07:30:29.391Z,24.43
2019-05-26T07:33:15.488Z,25.83
2019-05-26T07:36:03.537Z,23.37
2019-05-26T07:38:50.148Z,23.03
2019-05-26T07:41:36.543Z,23.93
2019-05-26T07:44:22.727Z,24.03
2019-05-26T07:47:08.763Z,22.70
2019-05-26T07:49:55.667Z,22.50
2019-05-26T07:52:41.665Z,21.50
2019-05-26T07:55:27.937Z,20.03
2019-05-26T07:58:14.015Z,15.50
2019-05-26T08:01:00.047Z,14.23
2019-05-26T08:03:46.101Z,13.97
2019-05-26T08:06:32.359Z,14.63
2019-05-26T08:09:18.549Z,14.40
2019-05-26T08:12:25.053Z,16.13
2019-05-26T08:14:59.182Z,15.77
2019-05-26T08:17:48.375Z,15.17
2019-05-26T08:20:34.625Z,13.50
2019-05-26T08:23:20.964Z,13.17
2019-05-26T08:26:07.270Z,11.60
2019-05-26T08:28:54.935Z,11.83
2019-05-26T08:31:41.657Z,12.07
2019-05-26T08:34:27.732Z,11.33
2019-05-26T08:37:13.787Z,10.43
2019-05-26T08:40:18.212Z,12.00
2019-05-26T08:43:04.240Z,9.90
2019-05-26T08:45:50.290Z,11.37
2019-05-26T08:48:36.309Z,8.93
2019-05-26T08:51:22.527Z,9.20
2019-05-26T08:54:11.531Z,8.73
2019-05-26T08:56:57.538Z,8.17
2019-05-26T08:59:43.861Z,7.07
2019-05-26T09:02:30.212Z,7.97
2019-05-26T09:05:16.560Z,9.50
2019-05-26T09:08:08.114Z,7.60
2019-05-26T09:10:53.561Z,8.33
2019-05-26T09:13:39.602Z,6.20
2019-05-26T09:16:25.855Z,8.30
2019-05-26T09:19:12.171Z,5.10
2019-05-26T09:21:58.151Z,5.17
2019-05-26T09:24:44.339Z,5.10
2019-05-26T09:27:30.439Z,4.77
2019-05-26T09:30:17.331Z,5.90
2019-05-26T09:33:03.598Z,4.93
2019-05-26T09:35:53.103Z,4.77
2019-05-26T09:38:39.110Z,4.33
2019-05-26T09:41:25.154Z,4.30
2019-05-26T09:44:11.209Z,6.47
2019-05-26T09:46:57.144Z,5.13
2019-05-26T09:49:43.128Z,3.37
2019-05-26T09:52:29.475Z,4.10
2019-05-26T09:55:15.727Z,3.43
2019-05-26T09:58:01.942Z,4.37
2019-05-26T10:00:47.858Z,5.47
2019-05-26T10:03:36.917Z,3.20
2019-05-26T10:06:23.568Z,4.10
2019-05-26T10:09:09.903Z,6.50
2019-05-26T10:11:56.233Z,4.37
2019-05-26T10:14:42.593Z,4.97
2019-05-26T10:17:29.099Z,7.93
2019-05-26T10:20:18.024Z,3.30
2019-05-26T10:23:04.753Z,2.53
2019-05-26T10:25:50.742Z,2.90
2019-05-26T10:28:36.986Z,3.20
2019-05-26T10:31:23.193Z,4.10
2019-05-26T10:34:09.365Z,4.97
2019-05-26T10:36:56.609Z,5.00
2019-05-26T10:39:44.990Z,4.20
2019-05-26T10:42:30.208Z,2.60
2019-05-26T10:45:17.009Z,4.00
2019-05-26T10:48:03.080Z,3.13
2019-05-26T10:50:49.454Z,3.47
2019-05-26T10:53:35.688Z,4.10
2019-05-26T10:56:22.140Z,4.03
2019-05-26T10:59:08.291Z,5.07
2019-05-26T11:01:54.365Z,3.57
2019-05-26T11:04:40.632Z,3.77
2019-05-26T11:07:27.039Z,3.77
2019-05-26T11:10:14.403Z,4.87
2019-05-26T11:13:00.946Z,7.07
2019-05-26T11:15:47.111Z,5.20
2019-05-26T11:18:33.684Z,4.30
2019-05-26T11:21:26.674Z,4.47
2019-05-26T11:24:13.590Z,3.27
2019-05-26T11:27:09.312Z,4.23
2019-05-26T11:29:47.986Z,4.80
2019-05-26T11:32:38.657Z,7.07
2019-05-26T11:35:28.233Z,4.90
2019-05-26T11:38:16.582Z,4.30
2019-05-26T11:41:02.545Z,5.63
2019-05-26T11:43:49.109Z,6.97
2019-05-26T11:46:36.602Z,6.60
2019-05-26T11:49:22.905Z,5.77
2019-05-26T11:52:10.254Z,4.73
2019-05-26T11:54:56.722Z,4.13
2019-05-26T11:57:43.093Z,4.40
2019-05-26T12:00:29.351Z,4.70
2019-05-26T12:03:16.973Z,3.73
2019-05-26T12:06:03.646Z,5.77
2019-05-26T12:08:50.079Z,4.53
2019-05-26T12:11:36.380Z,6.80
2019-05-26T12:14:34.388Z,5.80
2019-05-26T12:17:13.911Z,6.20
2019-05-26T12:20:04.885Z,6.17
2019-05-26T12:22:49.081Z,7.77
2019-05-26T12:25:35.321Z,4.63
2019-05-26T12:28:22.253Z,4.33
2019-05-26T12:31:08.711Z,3.83
2019-05-26T12:33:55.306Z,4.50
2019-05-26T12:36:42.143Z,6.27
2019-05-26T12:39:30.848Z,6.33
2019-05-26T12:42:17.341Z,6.77
2019-05-26T12:45:03.703Z,5.17
2019-05-26T12:47:49.858Z,5.43
2019-05-26T12:50:35.906Z,4.47
2019-05-26T12:53:23.179Z,6.77
2019-05-26T12:56:09.503Z,4.70
2019-05-26T12:58:56.164Z,4.47
2019-05-26T13:01:43.588Z,5.00
2019-05-26T13:04:29.687Z,6.37
2019-05-26T13:07:16.135Z,7.77
2019-05-26T13:10:02.594Z,6.57
2019-05-26T13:12:48.776Z,4.13
2019-05-26T13:15:34.934Z,5.40
2019-05-26T13:18:21.118Z,5.73
2019-05-26T13:21:07.591Z,4.00
2019-05-26T13:23:54.017Z,7.47
2019-05-26T13:26:40.382Z,5.97
2019-05-26T13:29:29.181Z,5.93
2019-05-26T13:32:15.475Z,4.70
2019-05-26T13:35:01.814Z,5.43
2019-05-26T13:37:50.107Z,4.80
2019-05-26T13:40:36.509Z,5.80
2019-05-26T13:43:22.738Z,4.33
2019-05-26T13:46:09.522Z,5.00
2019-05-26T13:48:55.718Z,4.47
2019-05-26T13:51:42.371Z,6.80
2019-05-26T13:54:28.402Z,6.40
2019-05-26T13:57:14.560Z,7.43
2019-05-26T14:00:00.867Z,5.00
2019-05-26T14:02:46.987Z,6.73
2019-05-26T14:05:33.288Z,3.73
2019-05-26T14:08:19.331Z,5.43
2019-05-26T14:11:05.514Z,5.67
2019-05-26T14:13:51.989Z,4.33
2019-05-26T14:16:38.235Z,7.23
2019-05-26T14:19:24.824Z,5.37
2019-05-26T14:22:11.140Z,7.13
2019-05-26T14:24:57.764Z,5.83
2019-05-26T14:27:43.912Z,4.57
2019-05-26T14:30:32.439Z,5.13
2019-05-26T14:33:18.896Z,6.73
2019-05-26T14:36:05.580Z,5.57
2019-05-26T14:38:52.372Z,6.77
2019-05-26T14:41:39.284Z,4.43
2019-05-26T14:44:25.266Z,4.07
2019-05-26T14:47:11.500Z,4.60
2019-05-26T14:49:57.482Z,3.87
2019-05-26T14:52:43.599Z,5.60
2019-05-26T14:55:29.568Z,5.83
2019-05-26T14:58:16.879Z,3.50
2019-05-26T15:01:03.254Z,5.40
2019-05-26T15:03:49.553Z,3.83
2019-05-26T15:06:35.818Z,3.60
2019-05-26T15:09:25.170Z,5.17
2019-05-26T15:12:09.913Z,6.27
2019-05-26T15:14:56.070Z,4.27
2019-05-26T15:17:42.178Z,4.03
2019-05-26T15:20:28.689Z,6.10
2019-05-26T15:23:15.454Z,4.87
2019-05-26T15:26:05.209Z,4.70
2019-05-26T15:28:49.292Z,8.53
2019-05-26T15:31:35.692Z,7.40
2019-05-26T15:34:21.819Z,6.90
2019-05-26T15:37:08.162Z,8.23
2019-05-26T15:39:54.165Z,6.07
2019-05-26T15:42:40.187Z,5.57
2019-05-26T15:45:28.216Z,6.40
2019-05-26T15:48:14.501Z,4.60
2019-05-26T15:51:00.676Z,9.03
2019-05-26T15:53:46.902Z,4.20
2019-05-26T15:56:32.871Z,4.07
2019-05-26T15:59:19.492Z,5.60
2019-05-26T16:02:05.585Z,8.70
2019-05-26T16:04:51.691Z,4.30
2019-05-26T16:07:38.438Z,5.27
2019-05-26T16:10:24.840Z,6.67
2019-05-26T16:13:11.113Z,5.50
2019-05-26T16:15:57.533Z,7.10
2019-05-26T16:18:46.644Z,6.13
2019-05-26T16:21:32.740Z,5.70
2019-05-26T16:24:19.325Z,6.93
2019-05-26T16:27:18.680Z,6.50
2019-05-26T16:29:54.514Z,6.63
2019-05-26T16:32:40.913Z,9.60
2019-05-26T16:35:27.730Z,5.93
2019-05-26T16:38:14.181Z,6.70
2019-05-26T16:41:00.610Z,7.93
2019-05-26T16:43:47.313Z,9.53
2019-05-26T16:46:33.826Z,4.53
2019-05-26T16:49:20.616Z,5.20
2019-05-26T16:52:06.662Z,8.73
2019-05-26T16:54:52.566Z,8.43
2019-05-26T16:57:38.652Z,4.00
2019-05-26T17:00:25.016Z,7.33
2019-05-26T17:03:11.316Z,9.43
2019-05-26T17:06:07.465Z,7.13
2019-05-26T17:08:45.774Z,7.43
2019-05-26T17:11:32.027Z,6.30
2019-05-26T17:14:18.168Z,7.17
2019-05-26T17:17:14.275Z,7.00
2019-05-26T17:19:53.023Z,4.37
2019-05-26T17:22:39.188Z,4.77
2019-05-26T17:25:25.416Z,6.73
2019-05-26T17:28:14.568Z,6.50
2019-05-26T17:31:00.950Z,7.23
2019-05-26T17:33:47.575Z,5.50
2019-05-26T17:36:33.815Z,8.80
2019-05-26T17:39:20.304Z,6.77
2019-05-26T17:42:06.473Z,4.57
2019-05-26T17:44:53.324Z,8.03
2019-05-26T17:47:39.730Z,6.50
2019-05-26T17:50:26.008Z,6.17
2019-05-26T17:53:12.078Z,9.07
2019-05-26T17:56:03.560Z,9.17
2019-05-26T17:58:49.623Z,6.40
2019-05-26T18:01:38.778Z,9.40
2019-05-26T18:04:24.877Z,6.53
2019-05-26T18:07:11.363Z,5.93
2019-05-26T18:09:59.562Z,6.07
2019-05-26T18:12:45.969Z,6.17
2019-05-26T18:15:33.202Z,8.83
2019-05-26T18:18:19.580Z,5.07
2019-05-26T18:21:06.078Z,6.77
2019-05-26T18:23:52.399Z,8.20
2019-05-26T18:26:39.092Z,5.80
2019-05-26T18:29:25.165Z,5.83
2019-05-26T18:32:11.575Z,4.93
2019-05-26T18:34:58.392Z,7.53
2019-05-26T18:37:44.390Z,5.27
2019-05-26T18:40:30.529Z,5.37
2019-05-26T18:43:16.937Z,5.90
2019-05-26T18:46:03.206Z,6.10
2019-05-26T18:48:49.661Z,5.70
2019-05-26T18:51:36.310Z,6.90
2019-05-26T18:54:23.427Z,7.13
2019-05-26T18:57:09.794Z,5.77
2019-05-26T18:59:56.167Z,5.00
2019-05-26T19:02:42.345Z,5.53
2019-05-26T19:05:33.667Z,5.37
2019-05-26T19:08:16.720Z,7.20
2019-05-26T19:11:03.313Z,5.80
2019-05-26T19:13:49.370Z,4.30
2019-05-26T19:16:35.608Z,5.23
2019-05-26T19:19:21.705Z,7.40
2019-05-26T19:22:08.291Z,6.17
2019-05-26T19:24:54.446Z,4.77
2019-05-26T19:27:40.594Z,5.53
2019-05-26T19:30:28.025Z,5.17
2019-05-26T19:33:14.384Z,6.47
2019-05-26T19:36:07.795Z,4.37
2019-05-26T19:38:50.643Z,4.37
2019-05-26T19:41:39.641Z,7.93
2019-05-26T19:44:28.694Z,5.60
2019-05-26T19:47:15.020Z,4.53
2019-05-26T19:50:01.301Z,4.27
2019-05-26T19:52:49.923Z,6.63
2019-05-26T19:55:35.486Z,5.47
2019-05-26T19:58:21.962Z,4.50
2019-05-26T20:01:08.669Z,3.47
2019-05-26T20:03:55.916Z,4.83
2019-05-26T20:06:45.021Z,4.90
2019-05-26T20:09:31.225Z,4.03
2019-05-26T20:12:17.784Z,4.83
2019-05-26T20:15:04.252Z,4.10
2019-05-26T20:17:50.632Z,5.37
2019-05-26T20:20:36.783Z,4.73
2019-05-26T20:23:22.826Z,4.07
2019-05-26T20:26:09.174Z,7.47
2019-05-26T20:28:55.667Z,10.00
2019-05-26T20:31:41.757Z,3.87
2019-05-26T20:34:27.762Z,5.03
2019-05-26T20:37:13.998Z,7.63
2019-05-26T20:40:00.071Z,4.77
2019-05-26T20:42:46.697Z,4.87
2019-05-26T20:45:33.213Z,7.57
2019-05-26T20:48:19.377Z,5.13
2019-05-26T20:51:05.822Z,4.47
2019-05-26T20:53:53.431Z,5.23
2019-05-26T20:56:39.493Z,6.60
2019-05-26T20:59:26.038Z,6.73
2019-05-26T21:02:12.431Z,6.23
2019-05-26T21:04:58.781Z,6.63
2019-05-26T21:07:45.338Z,7.47
2019-05-26T21:10:31.813Z,7.53
2019-05-26T21:13:17.914Z,6.93
2019-05-26T21:16:04.159Z,7.30
2019-05-26T21:18:50.266Z,8.40
2019-05-26T21:21:36.687Z,9.13
2019-05-26T21:24:23.233Z,7.90
2019-05-26T21:27:09.411Z,9.27
2019-05-26T21:29:55.733Z,7.17
2019-05-26T21:32:45.212Z,7.93
2019-05-26T21:35:32.062Z,7.37
2019-05-26T21:38:18.105Z,9.87
2019-05-26T21:41:10.712Z,7.03
2019-05-26T21:43:56.670Z,7.83
2019-05-26T21:46:44.217Z,6.27
2019-05-26T21:49:30.693Z,6.47
2019-05-26T21:52:17.173Z,8.83
2019-05-26T21:55:03.918Z,9.57
2019-05-26T21:57:50.688Z,8.67
2019-05-26T22:00:41.395Z,6.43
2019-05-26T22:03:27.418Z,8.10
2019-05-26T22:06:13.368Z,6.37
2019-05-26T22:08:59.377Z,6.10
2019-05-26T22:11:47.616Z,7.17
2019-05-26T22:14:36.772Z,5.73
2019-05-26T22:17:25.674Z,5.43
2019-05-26T22:20:11.901Z,6.80
2019-05-26T22:22:57.884Z,6.40
2019-05-26T22:25:43.838Z,7.40
2019-05-26T22:28:30.034Z,5.87
2019-05-26T22:31:16.148Z,10.23
2019-05-26T22:34:02.478Z,7.30
2019-05-26T22:36:48.828Z,8.23
2019-05-26T22:39:35.077Z,8.27
2019-05-26T22:42:23.871Z,5.70
2019-05-26T22:45:10.223Z,7.43
2019-05-26T22:47:56.272Z,5.43
2019-05-26T22:50:42.270Z,5.27
2019-05-26T22:53:29.178Z,6.00
2019-05-26T22:56:15.576Z,5.47
2019-05-26T22:59:02.588Z,5.17
2019-05-26T23:01:54.624Z,8.40
2019-05-26T23:04:40.744Z,6.23
2019-05-26T23:07:27.031Z,8.37
2019-05-26T23:10:13.149Z,6.13
2019-05-26T23:13:03.191Z,6.20
2019-05-26T23:15:49.130Z,6.90
2019-05-26T23:18:35.122Z,6.10
2019-05-26T23:21:28.194Z,5.90
2019-05-26T23:24:14.540Z,5.30
2019-05-26T23:27:00.683Z,6.43
2019-05-26T23:29:47.040Z,8.47
2019-05-26T23:32:33.787Z,7.67
2019-05-26T23:35:19.880Z,6.13
2019-05-26T23:38:08.923Z,5.10
2019-05-26T23:40:55.184Z,7.03
2019-05-26T23:43:43.892Z,7.47
2019-05-26T23:46:30.467Z,6.27
2019-05-26T23:49:16.541Z,8.73
2019-05-26T23:52:02.516Z,5.40
2019-05-26T23:54:51.486Z,6.93
2019-05-26T23:57:41.073Z,5.90
